Time;durP1;ratioP1;P1;durP2;ratioP2;P2;SDS_P1;SDS_P2;PMS_P1;PMS_P2;Temp;Humidity;BMP_temperature;BMP_pressure;BME280_temperature;BME280_humidity;BME280_pressure;Samples;Min_cycle;Max_cycle;Signal;HPM_P1;HPM_P2
2022/10/08 00:00:47;;;;;;;;;;;13.70;70.20;;;;;;5059006;28;19917;-78
2022/10/08 00:03:13;;;;;;;;;;;13.70;70.20;;;;;;5047217;28;19916;-78
2022/10/08 00:05:39;;;;;;;;;;;13.70;70.20;;;;;;5040741;28;19918;-78
2022/10/08 00:08:04;;;;;;;;;;;13.70;70.20;;;;;;5046465;28;19919;-77
2022/10/08 00:10:31;;;;;;;;;;;13.70;70.20;;;;;;5074794;28;19911;-78
2022/10/08 00:13:00;;;;;;;;;;;13.70;70.20;;;;;;5046782;28;20350;-78
2022/10/08 00:15:25;;;;;;;;;;;13.80;70.30;;;;;;5070955;28;19923;-78
2022/10/08 00:17:51;;;;;;;;;;;13.80;70.30;;;;;;5059689;28;19916;-79
2022/10/08 00:20:16;;;;;;;;;;;13.70;70.20;;;;;;5060939;28;19923;-78
2022/10/08 00:22:42;;;;;;;;;;;13.80;70.40;;;;;;5047821;28;20035;-78
2022/10/08 00:25:09;;;;;;;;;;;13.70;70.20;;;;;;5044861;28;19966;-78
2022/10/08 00:27:34;;;;;;;;;;;13.70;70.20;;;;;;5048965;28;19911;-78
2022/10/08 00:30:00;;;;;;;;;;;13.70;70.30;;;;;;5061440;28;20305;-77
2022/10/08 00:32:25;;;;;;;;;;;13.70;70.20;;;;;;5043366;28;19920;-77
2022/10/08 00:34:51;;;;;;;;;;;13.70;70.20;;;;;;5062125;28;19912;-75
2022/10/08 00:37:16;;;;;;;;;;;13.70;70.30;;;;;;5074810;28;19912;-76
2022/10/08 00:39:43;;;;;;;;;;;13.70;70.30;;;;;;5074750;28;20595;-75
2022/10/08 00:42:09;;;;;;;;;;;13.70;70.30;;;;;;5072373;28;19948;-75
2022/10/08 00:44:50;;;;;;;;;;;13.70;70.30;;;;;;5061347;28;19951;-75
2022/10/08 00:47:18;;;;;;;;;;;13.70;70.40;;;;;;5065182;28;19919;-74
2022/10/08 00:49:48;;;;;;;;;;;13.60;70.40;;;;;;5058251;28;19916;-76
2022/10/08 00:52:13;;;;;;;;;;;13.60;70.40;;;;;;5060654;28;19975;-76
2022/10/08 00:54:39;;;;;;;;;;;13.60;70.40;;;;;;5057842;28;20023;-75
2022/10/08 00:57:05;;;;;;;;;;;13.70;70.50;;;;;;5045041;28;19924;-77
2022/10/08 00:59:30;;;;;;;;;;;13.60;70.40;;;;;;5041955;28;20014;-77
2022/10/08 01:01:57;;;;;;;;;;;13.60;70.40;;;;;;5056531;28;20007;-76
2022/10/08 01:04:23;;;;;;;;;;;13.70;70.50;;;;;;5057029;28;20011;-77
2022/10/08 01:06:52;;;;;;;;;;;13.60;70.50;;;;;;5058624;28;19916;-75
2022/10/08 01:09:19;;;;;;;;;;;13.60;70.50;;;;;;5076826;28;19971;-77
2022/10/08 01:11:48;;;;;;;;;;;13.60;70.60;;;;;;5043938;28;19934;-76
2022/10/08 01:14:19;;;;;;;;;;;13.60;70.50;;;;;;5057798;28;19922;-78
2022/10/08 01:16:45;;;;;;;;;;;13.60;70.50;;;;;;5075199;28;19913;-76
2022/10/08 01:19:16;;;;;;;;;;;13.70;70.50;;;;;;5072531;28;20368;-77
2022/10/08 01:21:47;;;;;;;;;;;13.70;70.50;;;;;;5069963;28;19912;-77
2022/10/08 01:24:19;;;;;;;;;;;13.70;70.50;;;;;;5057967;28;19940;-76
2022/10/08 01:26:51;;;;;;;;;;;13.70;70.50;;;;;;5091372;28;19961;-76
2022/10/08 01:29:21;;;;;;;;;;;13.70;70.50;;;;;;5043072;28;19912;-78
2022/10/08 01:31:49;;;;;;;;;;;13.70;70.50;;;;;;5042513;28;19967;-76
2022/10/08 01:34:36;;;;;;;;;;;13.70;70.50;;;;;;5058140;28;20595;-77
2022/10/08 01:37:02;;;;;;;;;;;13.70;70.50;;;;;;5091372;28;20002;-76
2022/10/08 01:39:28;;;;;;;;;;;13.70;70.50;;;;;;5042027;28;20022;-76
2022/10/08 01:41:56;;;;;;;;;;;13.70;70.40;;;;;;5056965;28;19919;-75
2022/10/08 01:44:33;;;;;;;;;;;13.80;70.50;;;;;;5070771;28;19916;-76
2022/10/08 01:46:59;;;;;;;;;;;13.80;70.50;;;;;;5044029;28;19955;-76
2022/10/08 01:49:26;;;;;;;;;;;13.80;70.50;;;;;;5062101;28;19912;-76
2022/10/08 01:51:52;;;;;;;;;;;13.80;70.50;;;;;;5074500;28;19917;-77
2022/10/08 01:54:18;;;;;;;;;;;13.80;70.50;;;;;;5059041;28;19955;-76
2022/10/08 01:56:44;;;;;;;;;;;13.80;70.50;;;;;;5090353;28;19950;-77
2022/10/08 01:59:14;;;;;;;;;;;13.80;70.50;;;;;;5055423;28;19946;-76
2022/10/08 02:01:55;;;;;;;;;;;13.80;70.50;;;;;;5043654;28;19923;-76
2022/10/08 02:04:32;;;;;;;;;;;13.70;70.50;;;;;;5076186;28;19998;-77
2022/10/08 02:07:06;;;;;;;;;;;13.80;70.70;;;;;;5061508;28;19926;-77
2022/10/08 02:09:34;;;;;;;;;;;13.70;70.60;;;;;;5058982;28;19912;-76
2022/10/08 02:11:59;;;;;;;;;;;13.70;70.60;;;;;;5064346;28;19927;-76
2022/10/08 02:14:25;;;;;;;;;;;13.70;70.60;;;;;;5082074;28;19911;-77
2022/10/08 02:16:52;;;;;;;;;;;13.70;70.70;;;;;;5061214;28;20423;-77
2022/10/08 02:19:43;;;;;;;;;;;13.70;70.60;;;;;;5058624;28;19956;-78
2022/10/08 02:22:09;;;;;;;;;;;13.70;70.70;;;;;;5057627;28;19919;-77
2022/10/08 02:24:45;;;;;;;;;;;13.70;70.70;;;;;;5046997;28;19920;-78
2022/10/08 02:27:11;;;;;;;;;;;13.70;70.70;;;;;;5058904;28;19916;-77
2022/10/08 02:29:41;;;;;;;;;;;13.70;70.70;;;;;;5045592;28;19920;-77
2022/10/08 02:32:12;;;;;;;;;;;13.70;70.70;;;;;;5060133;28;19912;-77
2022/10/08 02:34:42;;;;;;;;;;;13.70;70.80;;;;;;5060381;28;19912;-77
2022/10/08 02:37:09;;;;;;;;;;;13.70;70.80;;;;;;5061684;28;19916;-78
2022/10/08 02:39:35;;;;;;;;;;;13.70;70.80;;;;;;5040267;28;20055;-76
2022/10/08 02:42:04;;;;;;;;;;;13.70;70.80;;;;;;5059322;28;19916;-76
2022/10/08 02:44:32;;;;;;;;;;;13.70;70.80;;;;;;5063037;28;20065;-78
2022/10/08 02:46:58;;;;;;;;;;;13.70;70.90;;;;;;5060519;28;19915;-77
2022/10/08 02:49:34;;;;;;;;;;;13.70;70.90;;;;;;5046658;28;19935;-77
2022/10/08 02:52:00;;;;;;;;;;;13.70;70.80;;;;;;5078530;28;19916;-77
2022/10/08 02:54:26;;;;;;;;;;;13.70;70.80;;;;;;5047085;28;19927;-77
2022/10/08 02:56:54;;;;;;;;;;;13.70;70.80;;;;;;5060163;28;19942;-77
2022/10/08 02:59:19;;;;;;;;;;;13.70;70.80;;;;;;5077569;28;20007;-77
2022/10/08 03:01:47;;;;;;;;;;;13.70;70.80;;;;;;5056120;28;20502;-77
2022/10/08 03:04:13;;;;;;;;;;;13.70;70.80;;;;;;5060783;28;19951;-77
2022/10/08 03:06:39;;;;;;;;;;;13.70;70.80;;;;;;5047920;28;19934;-77
2022/10/08 03:09:06;;;;;;;;;;;13.80;70.80;;;;;;5062772;28;20459;-77
2022/10/08 03:11:31;;;;;;;;;;;13.70;70.80;;;;;;5061574;28;19927;-78
2022/10/08 03:13:57;;;;;;;;;;;13.80;70.90;;;;;;5060880;28;19920;-78
2022/10/08 03:16:24;;;;;;;;;;;13.70;70.80;;;;;;5041637;28;20003;-77
2022/10/08 03:18:51;;;;;;;;;;;13.70;70.80;;;;;;5057189;28;19943;-77
2022/10/08 03:21:16;;;;;;;;;;;13.70;70.90;;;;;;5062106;28;19923;-78
2022/10/08 03:23:42;;;;;;;;;;;13.70;70.90;;;;;;5059683;28;19912;-77
2022/10/08 03:26:07;;;;;;;;;;;13.70;70.90;;;;;;5063720;28;19923;-77
2022/10/08 03:28:33;;;;;;;;;;;13.70;70.90;;;;;;5076892;28;20373;-77
2022/10/08 03:31:02;;;;;;;;;;;13.70;70.90;;;;;;5047895;28;19920;-77
2022/10/08 03:33:27;;;;;;;;;;;13.70;70.90;;;;;;5060454;28;19915;-77
2022/10/08 03:35:53;;;;;;;;;;;13.70;70.90;;;;;;5076523;28;19921;-77
2022/10/08 03:38:18;;;;;;;;;;;13.70;71.00;;;;;;5044499;28;19915;-77
2022/10/08 03:40:51;;;;;;;;;;;13.70;71.00;;;;;;5058611;28;19916;-77
2022/10/08 03:43:17;;;;;;;;;;;13.70;71.00;;;;;;5060479;28;19919;-77
2022/10/08 03:45:49;;;;;;;;;;;13.70;71.00;;;;;;5044020;28;19912;-77
2022/10/08 03:48:15;;;;;;;;;;;13.70;71.00;;;;;;5061485;28;20011;-77
2022/10/08 03:50:48;;;;;;;;;;;13.70;71.10;;;;;;5060864;28;20362;-79
2022/10/08 03:53:13;;;;;;;;;;;13.70;71.10;;;;;;5077900;28;19919;-77
2022/10/08 03:55:39;;;;;;;;;;;13.60;71.00;;;;;;5075901;28;19920;-77
2022/10/08 03:58:04;;;;;;;;;;;13.70;71.10;;;;;;5046171;28;20023;-77
2022/10/08 04:00:29;;;;;;;;;;;13.70;71.10;;;;;;5079344;28;19916;-77
2022/10/08 04:02:55;;;;;;;;;;;13.60;71.10;;;;;;5042073;28;19917;-78
2022/10/08 04:05:20;;;;;;;;;;;13.60;71.10;;;;;;5059818;28;20430;-78
2022/10/08 04:07:46;;;;;;;;;;;13.60;71.10;;;;;;5077587;28;19922;-78
2022/10/08 04:10:12;;;;;;;;;;;13.60;71.20;;;;;;5091421;28;20015;-78
2022/10/08 04:12:37;;;;;;;;;;;13.60;71.20;;;;;;5077816;28;19922;-78
2022/10/08 04:15:03;;;;;;;;;;;13.50;71.20;;;;;;5060096;28;19995;-76
2022/10/08 04:17:28;;;;;;;;;;;13.50;71.20;;;;;;5059495;28;19924;-78
2022/10/08 04:19:56;;;;;;;;;;;13.50;71.30;;;;;;5043518;28;20367;-78
2022/10/08 04:22:21;;;;;;;;;;;13.50;71.30;;;;;;5075912;28;20376;-78
2022/10/08 04:24:47;;;;;;;;;;;13.50;71.30;;;;;;5076680;28;19919;-77
2022/10/08 04:27:12;;;;;;;;;;;13.40;71.30;;;;;;5055841;28;19916;-77
2022/10/08 04:29:37;;;;;;;;;;;13.40;71.40;;;;;;5079191;28;20599;-78
2022/10/08 04:32:03;;;;;;;;;;;13.40;72.20;;;;;;5077861;28;19912;-77
2022/10/08 04:34:28;;;;;;;;;;;13.30;71.40;;;;;;5048623;28;19970;-77
2022/10/08 04:36:54;;;;;;;;;;;13.30;71.40;;;;;;5061732;28;19939;-77
2022/10/08 04:39:19;;;;;;;;;;;13.30;71.50;;;;;;5058444;28;19922;-77
2022/10/08 04:41:45;;;;;;;;;;;13.30;71.50;;;;;;5074544;28;19991;-78
2022/10/08 04:44:10;;;;;;;;;;;13.30;71.60;;;;;;5078751;28;20499;-77
2022/10/08 04:46:36;;;;;;;;;;;13.30;71.50;;;;;;5063479;28;19919;-77
2022/10/08 04:49:01;;;;;;;;;;;13.30;71.50;;;;;;5059193;28;19921;-78
2022/10/08 04:51:27;;;;;;;;;;;13.20;71.50;;;;;;5061357;28;19919;-77
2022/10/08 04:53:52;;;;;;;;;;;13.20;71.60;;;;;;5079137;28;21051;-78
2022/10/08 04:56:19;;;;;;;;;;;13.20;71.60;;;;;;5062906;28;20431;-77
2022/10/08 04:58:45;;;;;;;;;;;13.20;71.60;;;;;;5089974;28;20407;-78
2022/10/08 05:01:11;;;;;;;;;;;13.10;71.60;;;;;;5058408;28;19912;-77
2022/10/08 05:03:37;;;;;;;;;;;13.10;71.70;;;;;;5042151;28;19916;-77
2022/10/08 05:06:03;;;;;;;;;;;13.10;71.70;;;;;;5059777;28;20046;-77
2022/10/08 05:08:28;;;;;;;;;;;13.10;71.70;;;;;;5048832;28;20786;-77
2022/10/08 05:10:53;;;;;;;;;;;13.10;71.70;;;;;;5076447;28;19953;-77
2022/10/08 05:13:19;;;;;;;;;;;13.10;71.70;;;;;;5058557;28;19912;-77
2022/10/08 05:15:45;;;;;;;;;;;13.00;71.70;;;;;;5079914;28;19913;-77
2022/10/08 05:18:10;;;;;;;;;;;13.00;71.80;;;;;;5058127;28;20531;-78
2022/10/08 05:20:36;;;;;;;;;;;13.00;71.80;;;;;;5074151;28;19916;-77
2022/10/08 05:23:01;;;;;;;;;;;13.00;71.90;;;;;;5080215;28;20649;-77
2022/10/08 05:25:30;;;;;;;;;;;13.00;71.90;;;;;;5076008;28;19923;-77
2022/10/08 05:27:55;;;;;;;;;;;13.00;71.90;;;;;;5066054;28;19916;-78
2022/10/08 05:30:21;;;;;;;;;;;12.90;71.90;;;;;;5082817;28;19923;-79
2022/10/08 05:32:46;;;;;;;;;;;12.90;71.90;;;;;;5081475;28;19920;-78
2022/10/08 05:35:12;;;;;;;;;;;12.90;71.90;;;;;;5086309;28;19958;-78
2022/10/08 05:37:37;;;;;;;;;;;12.90;71.90;;;;;;5064558;28;19920;-77
2022/10/08 05:40:03;;;;;;;;;;;12.80;71.90;;;;;;5070221;28;20017;-77
2022/10/08 05:42:28;;;;;;;;;;;12.90;72.00;;;;;;5087546;28;20397;-78
2022/10/08 05:44:54;;;;;;;;;;;12.80;72.00;;;;;;5070314;28;19973;-78
2022/10/08 05:47:19;;;;;;;;;;;12.80;72.00;;;;;;5072834;28;19923;-78
2022/10/08 05:49:45;;;;;;;;;;;12.80;72.00;;;;;;5070086;28;19958;-78
2022/10/08 05:52:10;;;;;;;;;;;12.80;72.10;;;;;;5063194;28;20627;-78
2022/10/08 05:54:36;;;;;;;;;;;12.70;72.10;;;;;;5081284;28;20300;-79
2022/10/08 05:57:01;;;;;;;;;;;12.70;72.10;;;;;;5084291;28;19924;-78
2022/10/08 05:59:27;;;;;;;;;;;12.70;72.10;;;;;;5069868;28;19977;-78
2022/10/08 06:01:52;;;;;;;;;;;12.70;72.20;;;;;;5088543;28;20271;-78
2022/10/08 06:04:18;;;;;;;;;;;12.60;72.10;;;;;;5072110;28;19923;-78
2022/10/08 06:06:43;;;;;;;;;;;12.60;72.20;;;;;;5071776;28;19961;-77
2022/10/08 06:09:10;;;;;;;;;;;12.60;72.20;;;;;;5075187;28;19915;-78
2022/10/08 06:11:35;;;;;;;;;;;12.70;72.30;;;;;;5073365;28;19912;-78
2022/10/08 06:14:01;;;;;;;;;;;12.60;72.20;;;;;;5097108;28;19926;-79
2022/10/08 06:16:29;;;;;;;;;;;12.60;72.20;;;;;;5086758;28;19916;-78
2022/10/08 06:18:54;;;;;;;;;;;12.60;72.30;;;;;;5061544;28;20215;-78
2022/10/08 06:21:23;;;;;;;;;;;12.60;72.20;;;;;;5083647;28;19908;-78
2022/10/08 06:23:53;;;;;;;;;;;12.60;72.30;;;;;;5061168;28;19913;-78
2022/10/08 06:26:20;;;;;;;;;;;12.60;72.30;;;;;;5065826;28;19916;-78
2022/10/08 06:28:46;;;;;;;;;;;12.60;72.30;;;;;;5091239;28;19917;-78
2022/10/08 06:31:12;;;;;;;;;;;12.60;72.30;;;;;;5063889;28;19950;-78
2022/10/08 06:33:37;;;;;;;;;;;12.70;72.30;;;;;;5055081;28;19920;-77
2022/10/08 06:36:03;;;;;;;;;;;12.70;72.30;;;;;;5103112;28;19922;-78
2022/10/08 06:38:29;;;;;;;;;;;12.70;72.30;;;;;;5072909;28;19949;-78
2022/10/08 06:40:57;;;;;;;;;;;12.70;72.30;;;;;;5074202;28;19916;-78
2022/10/08 06:43:23;;;;;;;;;;;12.70;72.30;;;;;;5085875;28;19927;-77
2022/10/08 06:45:48;;;;;;;;;;;12.70;73.10;;;;;;5073360;28;20275;-78
2022/10/08 06:48:14;;;;;;;;;;;12.80;72.30;;;;;;5086222;28;19919;-78
2022/10/08 06:50:39;;;;;;;;;;;12.80;72.30;;;;;;5086162;28;19912;-77
2022/10/08 06:53:05;;;;;;;;;;;12.80;72.30;;;;;;5087719;28;19919;-78
2022/10/08 06:55:31;;;;;;;;;;;12.80;72.20;;;;;;5071436;28;19916;-77
2022/10/08 06:57:56;;;;;;;;;;;12.90;72.20;;;;;;5066995;28;19955;-77
2022/10/08 07:00:22;;;;;;;;;;;12.90;72.20;;;;;;5090652;28;19967;-78
2022/10/08 07:02:47;;;;;;;;;;;12.90;72.20;;;;;;5069048;28;19927;-78
2022/10/08 07:05:13;;;;;;;;;;;12.90;72.20;;;;;;5090777;28;21074;-78
2022/10/08 07:07:38;;;;;;;;;;;13.00;72.20;;;;;;5088982;28;20384;-77
2022/10/08 07:10:04;;;;;;;;;;;13.00;72.20;;;;;;5072681;28;19927;-78
2022/10/08 07:12:30;;;;;;;;;;;13.10;72.20;;;;;;5084803;28;19935;-79
2022/10/08 07:14:55;;;;;;;;;;;13.10;72.20;;;;;;5067029;28;19919;-76
2022/10/08 07:17:21;;;;;;;;;;;13.20;72.30;;;;;;5089921;28;20355;-78
2022/10/08 07:19:47;;;;;;;;;;;13.20;72.20;;;;;;5056187;28;20051;-79
2022/10/08 07:22:12;;;;;;;;;;;13.30;72.20;;;;;;5065849;28;20330;-77
2022/10/08 07:24:37;;;;;;;;;;;13.40;72.10;;;;;;5073451;28;19924;-78
2022/10/08 07:27:03;;;;;;;;;;;13.50;72.10;;;;;;5090036;28;19919;-77
2022/10/08 07:29:28;;;;;;;;;;;13.50;72.00;;;;;;5055132;28;19947;-77
2022/10/08 07:31:54;;;;;;;;;;;13.60;72.00;;;;;;5088622;28;19915;-78
2022/10/08 07:34:19;;;;;;;;;;;13.70;71.90;;;;;;5087820;28;19915;-78
2022/10/08 07:36:45;;;;;;;;;;;13.80;71.90;;;;;;5070389;28;20365;-78
2022/10/08 07:39:11;;;;;;;;;;;14.00;71.90;;;;;;5054573;28;19920;-78
2022/10/08 07:41:37;;;;;;;;;;;14.10;71.80;;;;;;5055082;28;19912;-77
2022/10/08 07:44:03;;;;;;;;;;;14.20;71.70;;;;;;5057782;28;19924;-77
2022/10/08 07:46:29;;;;;;;;;;;14.30;71.60;;;;;;5074673;28;19923;-79
2022/10/08 07:48:57;;;;;;;;;;;14.30;71.40;;;;;;5057624;28;19916;-78
2022/10/08 07:51:23;;;;;;;;;;;14.40;71.40;;;;;;5087040;28;19912;-78
2022/10/08 07:53:49;;;;;;;;;;;14.50;71.40;;;;;;5108043;28;20180;-79
2022/10/08 07:56:15;;;;;;;;;;;14.60;71.40;;;;;;5071098;28;20291;-78
2022/10/08 07:58:40;;;;;;;;;;;14.60;71.20;;;;;;5086369;28;19921;-79
2022/10/08 08:01:08;;;;;;;;;;;14.80;71.20;;;;;;5090229;28;19922;-77
2022/10/08 08:03:34;;;;;;;;;;;14.80;71.10;;;;;;5070141;28;19916;-78
2022/10/08 08:06:02;;;;;;;;;;;14.90;71.10;;;;;;5068973;28;19918;-79
2022/10/08 08:08:28;;;;;;;;;;;15.00;71.00;;;;;;5084982;28;19919;-79
2022/10/08 08:10:57;;;;;;;;;;;15.10;70.90;;;;;;5089001;28;19971;-79
2022/10/08 08:13:22;;;;;;;;;;;15.10;70.80;;;;;;5091009;28;19920;-79
2022/10/08 08:15:54;;;;;;;;;;;15.10;70.70;;;;;;5082306;28;19957;-79
2022/10/08 08:18:20;;;;;;;;;;;15.20;70.70;;;;;;5082647;28;20014;-76
2022/10/08 08:20:47;;;;;;;;;;;15.30;70.80;;;;;;5084759;28;19970;-77
2022/10/08 08:23:13;;;;;;;;;;;15.30;70.70;;;;;;5105525;28;19934;-78
2022/10/08 08:25:38;;;;;;;;;;;15.40;70.60;;;;;;5086820;28;19943;-78
2022/10/08 08:28:04;;;;;;;;;;;15.50;70.50;;;;;;5068663;28;21104;-77
2022/10/08 08:30:30;;;;;;;;;;;15.60;70.50;;;;;;5081657;28;19912;-77
2022/10/08 08:32:56;;;;;;;;;;;15.70;70.40;;;;;;5081696;28;19920;-78
2022/10/08 08:35:22;;;;;;;;;;;15.90;70.40;;;;;;5070037;28;19924;-79
2022/10/08 08:37:47;;;;;;;;;;;16.00;70.30;;;;;;5066733;28;19951;-78
2022/10/08 08:40:13;;;;;;;;;;;16.10;70.10;;;;;;5086388;28;19940;-78
2022/10/08 08:42:38;;;;;;;;;;;16.30;70.00;;;;;;5066692;28;19928;-78
2022/10/08 08:45:08;;;;;;;;;;;16.50;69.80;;;;;;5081701;28;19926;-78
2022/10/08 08:47:34;;;;;;;;;;;16.60;69.70;;;;;;5070894;28;19919;-78
2022/10/08 08:50:03;;;;;;;;;;;16.70;69.50;;;;;;5074244;28;19919;-78
2022/10/08 08:52:32;;;;;;;;;;;16.80;69.30;;;;;;5095216;28;19916;-78
2022/10/08 08:54:58;;;;;;;;;;;17.00;69.40;;;;;;5075817;28;20111;-78
2022/10/08 08:57:31;;;;;;;;;;;17.10;69.20;;;;;;5075563;28;19912;-77
2022/10/08 08:59:58;;;;;;;;;;;17.10;69.00;;;;;;5081711;28;19915;-76
2022/10/08 09:02:25;;;;;;;;;;;17.20;68.90;;;;;;5081425;28;19903;-75
2022/10/08 09:04:57;;;;;;;;;;;17.20;68.90;;;;;;5107931;28;19923;-77
2022/10/08 09:07:23;;;;;;;;;;;17.30;68.90;;;;;;5090556;28;19927;-76
2022/10/08 09:09:50;;;;;;;;;;;17.40;68.90;;;;;;5072212;28;19940;-77
2022/10/08 09:12:15;;;;;;;;;;;17.50;68.80;;;;;;5075109;28;19976;-77
2022/10/08 09:14:41;;;;;;;;;;;17.60;68.70;;;;;;5080888;28;19954;-76
2022/10/08 09:17:15;;;;;;;;;;;17.80;68.50;;;;;;5088324;28;19936;-77
2022/10/08 09:19:40;;;;;;;;;;;17.90;68.40;;;;;;5092060;28;19923;-77
2022/10/08 09:22:19;;;;;;;;;;;18.00;68.40;;;;;;5083405;28;19916;-77
2022/10/08 09:24:45;;;;;;;;;;;18.10;68.30;;;;;;5114716;28;19919;-77
2022/10/08 09:27:12;;;;;;;;;;;18.40;68.30;;;;;;5081556;28;19938;-75
2022/10/08 09:29:37;;;;;;;;;;;18.50;68.00;;;;;;5077180;28;19955;-75
2022/10/08 09:32:03;;;;;;;;;;;18.70;67.80;;;;;;5113598;28;19912;-76
2022/10/08 09:34:35;;;;;;;;;;;18.80;67.60;;;;;;5081629;28;19947;-78
2022/10/08 09:37:02;;;;;;;;;;;19.00;67.50;;;;;;5079570;28;19920;-78
2022/10/08 09:39:31;;;;;;;;;;;19.10;67.20;;;;;;5073794;28;19928;-75
2022/10/08 09:42:06;;;;;;;;;;;19.30;67.10;;;;;;5077958;28;19941;-78
2022/10/08 09:44:47;;;;;;;;;;;19.50;66.90;;;;;;5095540;28;19978;-77
2022/10/08 09:47:14;;;;;;;;;;;19.60;66.60;;;;;;5079411;28;19919;-77
2022/10/08 09:49:39;;;;;;;;;;;19.80;66.50;;;;;;5076717;28;19908;-77
2022/10/08 09:52:18;;;;;;;;;;;19.90;66.30;;;;;;5060997;28;19913;-75
2022/10/08 09:54:47;;;;;;;;;;;20.10;66.20;;;;;;5091841;28;19916;-78
2022/10/08 09:57:15;;;;;;;;;;;20.30;66.00;;;;;;5094462;28;20407;-77
2022/10/08 09:59:48;;;;;;;;;;;20.40;65.90;;;;;;5095843;28;19930;-78
2022/10/08 10:02:22;;;;;;;;;;;20.50;65.60;;;;;;5080454;28;19919;-78
2022/10/08 10:04:49;;;;;;;;;;;20.60;65.50;;;;;;5080987;28;19919;-77
2022/10/08 10:07:15;;;;;;;;;;;20.70;65.40;;;;;;5061077;28;19912;-76
2022/10/08 10:09:41;;;;;;;;;;;20.80;65.40;;;;;;5073272;28;19918;-76
2022/10/08 10:12:12;;;;;;;;;;;20.90;65.20;;;;;;5059138;28;19911;-77
2022/10/08 10:14:42;;;;;;;;;;;21.00;65.20;;;;;;5098397;28;20022;-77
2022/10/08 10:17:17;;;;;;;;;;;21.20;65.00;;;;;;5061439;28;19919;-78
2022/10/08 10:19:54;;;;;;;;;;;21.30;64.80;;;;;;5086000;28;19920;-77
2022/10/08 10:22:24;;;;;;;;;;;21.30;64.60;;;;;;5060011;28;20003;-77
2022/10/08 10:24:59;;;;;;;;;;;21.40;64.70;;;;;;5063713;28;19957;-77
2022/10/08 10:27:27;;;;;;;;;;;21.50;64.70;;;;;;5062210;28;19912;-78
2022/10/08 10:29:58;;;;;;;;;;;21.60;64.40;;;;;;5099456;28;20453;-77
2022/10/08 10:32:25;;;;;;;;;;;21.80;64.30;;;;;;5063039;28;19928;-78
2022/10/08 10:34:54;;;;;;;;;;;22.00;64.20;;;;;;5081345;28;19916;-78
2022/10/08 10:37:21;;;;;;;;;;;22.20;64.00;;;;;;5049497;28;19912;-78
2022/10/08 10:39:52;;;;;;;;;;;22.40;63.80;;;;;;5064019;28;19926;-79
2022/10/08 10:42:18;;;;;;;;;;;22.50;63.60;;;;;;5048197;28;19931;-77
2022/10/08 10:45:16;;;;;;;;;;;22.70;63.50;;;;;;5064638;28;20149;-77
2022/10/08 10:47:41;;;;;;;;;;;22.90;63.20;;;;;;5030760;28;19949;-76
2022/10/08 10:50:13;;;;;;;;;;;23.10;62.90;;;;;;5064908;28;19911;-78
2022/10/08 10:52:44;;;;;;;;;;;23.20;62.70;;;;;;5079909;28;19924;-76
2022/10/08 10:55:19;;;;;;;;;;;23.20;62.40;;;;;;5075708;28;19920;-77
2022/10/08 10:58:03;;;;;;;;;;;23.20;62.50;;;;;;5076852;28;19916;-77
2022/10/08 11:00:47;;;;;;;;;;;23.00;62.60;;;;;;5074501;28;19912;-77
2022/10/08 11:03:21;;;;;;;;;;;22.90;62.70;;;;;;5091237;28;19959;-77
2022/10/08 11:05:47;;;;;;;;;;;22.90;63.00;;;;;;5075627;28;19916;-78
2022/10/08 11:08:29;;;;;;;;;;;22.90;63.10;;;;;;5056801;28;20403;-77
2022/10/08 11:11:13;;;;;;;;;;;23.00;63.10;;;;;;5055859;28;20634;-78
2022/10/08 11:14:01;;;;;;;;;;;23.20;62.90;;;;;;5064068;28;19965;-78
2022/10/08 11:16:35;;;;;;;;;;;23.30;62.50;;;;;;5073217;28;19916;-77
2022/10/08 11:19:01;;;;;;;;;;;23.20;62.30;;;;;;5070476;28;19981;-78
2022/10/08 11:21:38;;;;;;;;;;;23.00;62.40;;;;;;5057960;28;19918;-78
2022/10/08 11:24:06;;;;;;;;;;;22.90;62.60;;;;;;5061503;28;19912;-77
2022/10/08 11:26:52;;;;;;;;;;;22.60;62.90;;;;;;5077556;28;20542;-77
2022/10/08 11:29:36;;;;;;;;;;;22.60;63.20;;;;;;5059847;28;20012;-77
2022/10/08 11:32:01;;;;;;;;;;;22.50;63.20;;;;;;5057574;28;19912;-77
2022/10/08 11:34:28;;;;;;;;;;;22.40;63.30;;;;;;5073234;28;19919;-78
2022/10/08 11:37:16;;;;;;;;;;;22.40;63.50;;;;;;5074060;28;19919;-78
2022/10/08 11:39:51;;;;;;;;;;;22.40;63.40;;;;;;5063436;28;19916;-77
2022/10/08 11:42:17;;;;;;;;;;;22.30;63.40;;;;;;5060599;28;19922;-77
2022/10/08 11:44:42;;;;;;;;;;;22.10;63.50;;;;;;5072528;28;19916;-78
2022/10/08 11:47:26;;;;;;;;;;;22.00;63.60;;;;;;5076472;28;19923;-77
2022/10/08 11:49:52;;;;;;;;;;;21.90;63.90;;;;;;5073683;28;19917;-78
2022/10/08 11:52:18;;;;;;;;;;;21.90;64.00;;;;;;5051033;28;19915;-77
2022/10/08 11:54:47;;;;;;;;;;;21.90;63.90;;;;;;5073720;28;19958;-76
2022/10/08 11:57:19;;;;;;;;;;;21.90;63.80;;;;;;5070454;28;19912;-77
2022/10/08 11:59:45;;;;;;;;;;;21.80;63.70;;;;;;5068007;28;19951;-78
2022/10/08 12:02:16;;;;;;;;;;;21.70;63.90;;;;;;5072095;28;19946;-77
2022/10/08 12:04:42;;;;;;;;;;;21.50;64.10;;;;;;5072662;28;19987;-78
2022/10/08 12:07:13;;;;;;;;;;;21.50;64.20;;;;;;5072672;28;20003;-77
2022/10/08 12:10:05;;;;;;;;;;;21.50;64.20;;;;;;5065949;28;19918;-77
2022/10/08 12:12:49;;;;;;;;;;;21.60;64.30;;;;;;5068081;28;19958;-77
2022/10/08 12:15:26;;;;;;;;;;;21.70;64.00;;;;;;5072817;28;19923;-78
2022/10/08 12:17:55;;;;;;;;;;;21.80;63.80;;;;;;5070457;28;19949;-77
2022/10/08 12:20:22;;;;;;;;;;;21.80;63.60;;;;;;5054128;28;19923;-77
2022/10/08 12:23:03;;;;;;;;;;;21.70;63.60;;;;;;5050964;28;19912;-77
2022/10/08 12:25:29;;;;;;;;;;;21.60;63.80;;;;;;5072470;28;19924;-78
2022/10/08 12:28:11;;;;;;;;;;;21.50;63.90;;;;;;5071233;28;20278;-78
2022/10/08 12:30:45;;;;;;;;;;;21.30;64.00;;;;;;5057274;28;19937;-78
2022/10/08 12:33:11;;;;;;;;;;;21.20;64.20;;;;;;5067305;28;20568;-78
2022/10/08 12:35:39;;;;;;;;;;;21.20;64.30;;;;;;5071265;28;19919;-78
2022/10/08 12:38:22;;;;;;;;;;;21.30;64.40;;;;;;5089992;28;20449;-77
2022/10/08 12:40:51;;;;;;;;;;;21.30;64.20;;;;;;5069579;28;19965;-78
2022/10/08 12:43:19;;;;;;;;;;;21.30;64.10;;;;;;5070145;28;20074;-78
2022/10/08 12:46:05;;;;;;;;;;;21.30;63.90;;;;;;5068733;28;19920;-78
2022/10/08 12:48:33;;;;;;;;;;;21.30;64.00;;;;;;5031216;28;19916;-77
2022/10/08 12:51:08;;;;;;;;;;;21.30;64.00;;;;;;5069516;28;20007;-77
2022/10/08 12:53:33;;;;;;;;;;;21.20;63.90;;;;;;5034772;28;19915;-77
2022/10/08 12:55:59;;;;;;;;;;;21.20;63.90;;;;;;5071833;28;19916;-78
2022/10/08 12:58:28;;;;;;;;;;;21.20;64.00;;;;;;5067988;28;19934;-77
2022/10/08 13:00:54;;;;;;;;;;;21.20;63.90;;;;;;5053846;28;19993;-77
2022/10/08 13:03:20;;;;;;;;;;;21.20;63.90;;;;;;5069173;28;19916;-78
2022/10/08 13:05:46;;;;;;;;;;;21.30;63.90;;;;;;5068220;28;19923;-78
2022/10/08 13:08:30;;;;;;;;;;;21.30;63.90;;;;;;5072214;28;20303;-78
2022/10/08 13:10:56;;;;;;;;;;;21.20;63.70;;;;;;5067552;28;19959;-77
2022/10/08 13:13:39;;;;;;;;;;;21.20;63.70;;;;;;5052307;28;20651;-78
2022/10/08 13:16:05;;;;;;;;;;;21.20;63.70;;;;;;5055146;28;20823;-78
2022/10/08 13:18:30;;;;;;;;;;;21.20;63.70;;;;;;5069570;28;20432;-77
2022/10/08 13:20:59;;;;;;;;;;;21.10;63.60;;;;;;5053191;28;19920;-79
2022/10/08 13:23:30;;;;;;;;;;;21.00;64.50;;;;;;5054389;28;19916;-77
2022/10/08 13:25:58;;;;;;;;;;;21.10;63.80;;;;;;5054657;28;19965;-78
2022/10/08 13:28:23;;;;;;;;;;;21.00;63.90;;;;;;5083643;28;19937;-77
2022/10/08 13:30:49;;;;;;;;;;;20.90;63.90;;;;;;5065594;28;19913;-78
2022/10/08 13:33:19;;;;;;;;;;;20.80;63.90;;;;;;5066246;28;19923;-77
2022/10/08 13:36:14;;;;;;;;;;;20.80;64.00;;;;;;5065547;28;19926;-77
2022/10/08 13:38:39;;;;;;;;;;;20.80;63.90;;;;;;5043217;28;19916;-78
2022/10/08 13:41:05;;;;;;;;;;;20.80;63.90;;;;;;5051011;28;19923;-78
2022/10/08 13:43:31;;;;;;;;;;;20.90;63.90;;;;;;5049264;28;20512;-78
2022/10/08 13:45:57;;;;;;;;;;;20.90;63.80;;;;;;5066012;28;20016;-77
2022/10/08 13:48:22;;;;;;;;;;;20.80;63.70;;;;;;5065417;28;20011;-77
2022/10/08 13:50:51;;;;;;;;;;;20.80;63.90;;;;;;5064398;28;19923;-79
2022/10/08 13:53:18;;;;;;;;;;;20.80;64.00;;;;;;5066069;28;19977;-77
2022/10/08 13:55:44;;;;;;;;;;;20.80;64.10;;;;;;5053564;28;19912;-77
2022/10/08 13:58:10;;;;;;;;;;;20.80;64.00;;;;;;5082758;28;19963;-77
2022/10/08 14:00:38;;;;;;;;;;;20.90;64.10;;;;;;5072242;28;19917;-78
2022/10/08 14:03:04;;;;;;;;;;;21.00;64.20;;;;;;5072357;28;20340;-77
2022/10/08 14:05:29;;;;;;;;;;;21.10;64.10;;;;;;5058649;28;20002;-77
2022/10/08 14:07:57;;;;;;;;;;;21.20;63.90;;;;;;5055839;28;19951;-78
2022/10/08 14:10:22;;;;;;;;;;;21.30;63.90;;;;;;5073435;28;19920;-78
2022/10/08 14:12:48;;;;;;;;;;;21.30;63.90;;;;;;5053888;28;19916;-77
2022/10/08 14:15:14;;;;;;;;;;;21.40;63.90;;;;;;5075687;28;19923;-76
2022/10/08 14:17:39;;;;;;;;;;;21.50;63.90;;;;;;5071722;28;20494;-77
2022/10/08 14:20:05;;;;;;;;;;;21.50;63.70;;;;;;5056674;28;19970;-77
2022/10/08 14:22:37;;;;;;;;;;;21.60;63.70;;;;;;5071966;28;19961;-78